createdAt,value
2022-07-29T00:07:50.713Z,58
2022-07-29T00:17:51.155Z,59
2022-07-29T00:27:52.066Z,59
2022-07-29T00:37:52.223Z,60
2022-07-29T01:37:56.241Z,63
2022-07-29T02:37:59.498Z,65
2022-07-29T02:47:59.663Z,65
2022-07-29T02:58:00.465Z,66
2022-07-29T03:08:00.727Z,66
2022-07-29T03:18:01.792Z,66
2022-07-29T03:28:01.970Z,66
2022-07-29T03:38:02.238Z,66
2022-07-29T03:48:02.636Z,66
2022-07-29T03:58:03.440Z,65
2022-07-29T04:08:04.277Z,65
2022-07-29T04:18:05.166Z,65
2022-07-29T04:38:05.792Z,65
2022-07-29T04:48:06.108Z,66
2022-07-29T04:58:06.361Z,66
2022-07-29T05:08:07.395Z,67
2022-07-29T05:18:08.365Z,68
2022-07-29T05:28:08.781Z,71
2022-07-29T05:38:09.159Z,73
2022-07-29T05:48:09.507Z,73
2022-07-29T05:58:09.617Z,74
2022-07-29T06:08:10.694Z,75
2022-07-29T06:18:11.738Z,75
2022-07-29T06:28:12.689Z,75
2022-07-29T06:48:13.301Z,76
2022-07-29T06:58:14.122Z,76
2022-07-29T07:08:14.776Z,76
2022-07-29T07:18:15.420Z,76
2022-07-29T07:28:16.027Z,76
2022-07-29T07:38:16.857Z,77
2022-07-29T07:48:17.036Z,76
2022-07-29T07:58:17.276Z,75
2022-07-29T08:08:18.361Z,74
2022-07-29T08:18:19.184Z,74
2022-07-29T08:28:19.651Z,73
2022-07-29T08:38:20.644Z,73
2022-07-29T08:58:21.623Z,74
2022-07-29T09:08:22.166Z,74
2022-07-29T09:18:30.615Z,74
2022-07-29T09:28:23.043Z,74
2022-07-29T09:38:23.867Z,76
2022-07-29T09:48:24.632Z,78
2022-07-29T09:58:25.726Z,79
2022-07-29T10:08:25.838Z,80
2022-07-29T10:28:27.535Z,81
2022-07-29T10:48:28.203Z,81
2022-07-29T10:58:29.027Z,81
2022-07-29T11:08:29.963Z,82
2022-07-29T11:18:31.066Z,80
2022-07-29T11:28:37.467Z,79
2022-07-29T11:38:38.373Z,78
2022-07-29T11:48:39.394Z,78
2022-07-29T11:58:39.514Z,78
2022-07-29T12:08:39.741Z,77
2022-07-29T12:18:39.831Z,75
2022-07-29T12:28:40.374Z,70
2022-07-29T12:38:41.275Z,64
2022-07-29T12:58:42.040Z,58
2022-07-29T13:08:42.726Z,56
2022-07-29T13:18:43.221Z,56
2022-07-29T13:28:44.096Z,57
2022-07-29T13:38:44.172Z,58
2022-07-29T13:58:45.439Z,59
2022-07-29T14:08:46.175Z,59
2022-07-29T14:18:46.597Z,59
2022-07-29T14:28:47.229Z,60
2022-07-29T14:38:47.378Z,58
2022-07-29T14:48:47.552Z,56
2022-07-29T15:08:49.202Z,51
2022-07-29T15:18:49.317Z,53
2022-07-29T15:28:49.642Z,54
2022-07-29T15:38:50.677Z,55
2022-07-29T15:58:51.587Z,56
2022-07-29T16:08:51.772Z,54
2022-07-29T16:28:53.098Z,51
2022-07-29T16:48:53.868Z,52
2022-07-29T16:58:54.188Z,54
2022-07-29T17:18:55.295Z,56
2022-07-29T17:28:55.845Z,57
2022-07-29T17:38:56.437Z,58
2022-07-29T17:48:57.050Z,58
2022-07-29T17:58:58.061Z,58
2022-07-29T18:08:58.840Z,59
2022-07-29T18:18:59.835Z,60
2022-07-29T18:29:00.893Z,61
2022-07-29T18:39:01.756Z,62
2022-07-29T18:49:02.691Z,63
2022-07-29T18:59:02.996Z,64
2022-07-29T19:09:03.891Z,65
2022-07-29T19:19:04.012Z,66
2022-07-29T19:29:04.481Z,68
2022-07-29T19:39:05.181Z,69
2022-07-29T19:49:05.305Z,70
2022-07-29T19:59:05.523Z,71
2022-07-29T20:09:05.975Z,72
2022-07-29T20:19:06.510Z,74
2022-07-29T20:29:07.426Z,75
2022-07-29T20:39:07.924Z,76
2022-07-29T20:49:09.025Z,76
2022-07-29T20:59:09.483Z,76
2022-07-29T21:09:10.006Z,77
2022-07-29T21:29:11.271Z,78
2022-07-29T21:39:11.821Z,80
2022-07-29T21:49:12.335Z,80
2022-07-29T22:49:15.447Z,84
2022-07-29T22:59:16.214Z,85
2022-07-29T23:09:16.372Z,85
2022-07-29T23:19:17.053Z,86
2022-07-29T23:39:18.030Z,87
2022-07-29T23:49:19.042Z,87
2022-07-29T23:59:20.072Z,87
